createdAt,value
2018-12-16T00:01:42.323Z,70.10
2018-12-16T00:04:18.676Z,70.20
2018-12-16T00:07:02.271Z,70.10
2018-12-16T00:09:34.993Z,69.60
2018-12-16T00:12:16.772Z,70.10
2018-12-16T00:14:48.940Z,70.10
2018-12-16T00:17:30.601Z,70.10
2018-12-16T00:20:02.691Z,70.10
2018-12-16T00:22:56.736Z,70.10
2018-12-16T00:25:29.099Z,70.10
2018-12-16T00:41:21.938Z,71.00
2018-12-16T00:43:53.976Z,70.20
2018-12-16T00:46:39.063Z,70.30
2018-12-16T00:49:10.746Z,70.30
2018-12-16T00:51:53.614Z,70.30
2018-12-16T00:54:25.535Z,70.40
2018-12-16T00:57:06.606Z,70.30
2018-12-16T00:59:38.384Z,70.20
2018-12-16T01:02:40.430Z,70.30
2018-12-16T01:05:12.927Z,70.30
2018-12-16T01:07:58.347Z,70.30
2018-12-16T01:10:30.247Z,70.50
2018-12-16T01:13:11.399Z,70.30
2018-12-16T01:15:43.184Z,70.30
2018-12-16T01:18:28.037Z,70.50
2018-12-16T01:20:59.780Z,70.40
2018-12-16T01:23:41.024Z,70.30
2018-12-16T01:26:12.619Z,70.20
2018-12-16T01:29:00.357Z,70.20
2018-12-16T01:31:32.194Z,70.20
2018-12-16T01:34:13.400Z,70.20
2018-12-16T01:36:45.333Z,70.30
2018-12-16T01:39:26.800Z,70.10
2018-12-16T01:41:58.309Z,70.10
2018-12-16T01:44:43.440Z,70.10
2018-12-16T01:47:15.138Z,71.00
2018-12-16T01:50:09.076Z,70.10
2018-12-16T01:52:40.832Z,70.20
2018-12-16T01:55:25.788Z,70.10
2018-12-16T01:57:58.292Z,70.30
2018-12-16T02:00:39.452Z,70.20
2018-12-16T02:03:11.727Z,70.10
2018-12-16T02:19:24.924Z,70.20
2018-12-16T02:21:56.550Z,70.20
2018-12-16T02:24:41.612Z,70.20
2018-12-16T02:27:13.438Z,70.10
2018-12-16T02:29:54.848Z,70.10
2018-12-16T02:32:26.669Z,70.20
2018-12-16T02:35:08.064Z,70.20
2018-12-16T02:37:39.492Z,70.30
2018-12-16T02:40:20.816Z,70.30
2018-12-16T02:42:52.484Z,70.30
2018-12-16T02:58:35.832Z,70.30
2018-12-16T03:01:07.681Z,70.30
2018-12-16T03:03:48.927Z,70.20
2018-12-16T03:06:20.518Z,70.30
2018-12-16T03:09:06.848Z,70.30
2018-12-16T03:11:39.456Z,70.30
2018-12-16T03:14:24.233Z,70.40
2018-12-16T03:16:55.734Z,70.50
2018-12-16T03:19:40.441Z,70.50
2018-12-16T03:22:12.203Z,70.40
2018-12-16T04:16:59.496Z,70.10
2018-12-16T04:19:30.960Z,70.50
2018-12-16T04:22:11.966Z,70.50
2018-12-16T04:24:43.361Z,70.30
2018-12-16T04:27:33.999Z,70.10
2018-12-16T04:30:06.177Z,69.90
2018-12-16T04:32:51.744Z,70.50
2018-12-16T04:35:23.234Z,69.70
2018-12-16T04:38:04.389Z,69.40
2018-12-16T04:40:35.818Z,69.40
2018-12-16T04:43:20.366Z,69.40
2018-12-16T04:45:51.828Z,69.40
2018-12-16T04:48:39.370Z,69.30
2018-12-16T04:51:10.811Z,69.20
2018-12-16T04:53:52.467Z,69.20
2018-12-16T04:56:23.918Z,69.30
2018-12-16T04:59:08.488Z,69.20
2018-12-16T05:01:40.006Z,69.20
2018-12-16T05:04:21.807Z,69.20
2018-12-16T05:06:53.321Z,69.30
2018-12-16T05:09:40.843Z,69.10
2018-12-16T05:12:12.287Z,69.00
2018-12-16T05:28:09.487Z,68.70
2018-12-16T05:30:40.878Z,68.60
2018-12-16T05:33:25.549Z,68.60
2018-12-16T05:35:57.034Z,68.60
2018-12-16T05:38:41.691Z,68.60
2018-12-16T05:41:13.182Z,68.40
2018-12-16T05:43:54.356Z,68.50
2018-12-16T05:46:25.699Z,68.40
2018-12-16T05:49:06.797Z,68.40
2018-12-16T05:51:38.194Z,68.30
2018-12-16T05:54:22.856Z,68.30
2018-12-16T05:56:54.350Z,68.30
2018-12-16T05:59:35.463Z,68.40
2018-12-16T06:02:06.883Z,68.20
2018-12-16T06:04:47.968Z,68.40
2018-12-16T06:07:19.460Z,68.30
2018-12-16T06:10:00.588Z,68.30
2018-12-16T06:12:32.040Z,68.40
2018-12-16T06:15:13.206Z,68.30
2018-12-16T06:17:44.604Z,68.30
2018-12-16T06:20:25.634Z,68.20
2018-12-16T06:22:57.021Z,68.20
2018-12-16T06:25:38.208Z,68.20
2018-12-16T06:28:09.729Z,68.10
2018-12-16T06:30:57.296Z,68.10
2018-12-16T06:33:28.681Z,67.90
2018-12-16T06:36:13.224Z,67.90
2018-12-16T06:38:44.900Z,67.20
2018-12-16T06:41:29.557Z,67.90
2018-12-16T06:44:01.616Z,68.80
2018-12-16T06:46:42.859Z,67.90
2018-12-16T06:49:14.361Z,67.70
2018-12-16T06:51:58.988Z,67.80
2018-12-16T06:54:31.043Z,67.70
2018-12-16T06:57:12.187Z,67.70
2018-12-16T06:59:43.679Z,67.70
2018-12-16T07:02:24.828Z,67.40
2018-12-16T07:04:56.919Z,67.40
2018-12-16T07:07:41.453Z,67.50
2018-12-16T07:10:12.951Z,67.40
2018-12-16T07:12:54.050Z,67.60
2018-12-16T07:15:25.522Z,67.60
2018-12-16T07:18:13.049Z,67.60
2018-12-16T07:20:44.601Z,67.60
2018-12-16T07:23:32.430Z,67.60
2018-12-16T07:26:03.935Z,67.40
2018-12-16T07:28:45.240Z,67.30
2018-12-16T07:31:16.631Z,67.40
2018-12-16T07:33:57.646Z,67.40
2018-12-16T07:36:29.071Z,67.40
2018-12-16T07:39:16.952Z,67.40
2018-12-16T07:41:48.457Z,67.40
2018-12-16T07:44:29.574Z,67.30
2018-12-16T07:47:01.035Z,67.40
2018-12-16T07:49:42.207Z,67.40
2018-12-16T07:52:13.814Z,67.20
2018-12-16T07:55:10.991Z,67.30
2018-12-16T07:57:42.495Z,67.30
2018-12-16T08:00:27.159Z,67.30
2018-12-16T08:05:40.458Z,67.20
2018-12-16T08:08:11.924Z,67.20
2018-12-16T08:11:02.611Z,67.20
2018-12-16T08:13:34.216Z,67.10
2018-12-16T08:16:15.299Z,67.10
2018-12-16T08:18:46.772Z,67.10
2018-12-16T08:34:32.684Z,66.80
2018-12-16T08:37:04.285Z,66.90
2018-12-16T08:39:51.965Z,66.90
2018-12-16T08:42:23.461Z,67.10
2018-12-16T08:45:08.984Z,66.90
2018-12-16T08:47:40.470Z,66.90
2018-12-16T08:50:25.095Z,66.90
2018-12-16T08:52:56.601Z,66.90
2018-12-16T09:08:49.194Z,66.40
2018-12-16T09:11:20.746Z,66.40
2018-12-16T09:14:01.852Z,66.50
2018-12-16T09:16:33.275Z,66.30
2018-12-16T09:19:26.802Z,66.40
2018-12-16T09:21:58.206Z,66.30
2018-12-16T09:24:39.447Z,66.30
2018-12-16T09:27:10.835Z,66.10
2018-12-16T09:29:52.419Z,66.20
2018-12-16T09:32:25.001Z,66.10
2018-12-16T09:35:06.497Z,66.10
2018-12-16T09:37:38.948Z,65.90
2018-12-16T09:40:20.122Z,65.70
2018-12-16T09:42:51.539Z,65.80
2018-12-16T09:45:33.062Z,65.70
2018-12-16T09:48:04.645Z,65.60
2018-12-16T09:50:49.434Z,65.40
2018-12-16T09:53:21.098Z,65.30
2018-12-16T09:56:02.264Z,65.20
2018-12-16T09:58:33.935Z,65.20
2018-12-16T10:01:18.772Z,65.00
2018-12-16T10:03:50.593Z,65.30
2018-12-16T10:06:35.351Z,65.10
2018-12-16T10:09:09.617Z,64.80
2018-12-16T10:24:54.526Z,64.40
2018-12-16T10:27:26.646Z,64.10
2018-12-16T10:30:10.033Z,64.30
2018-12-16T10:32:41.573Z,64.40
2018-12-16T10:35:26.396Z,63.90
2018-12-16T10:37:58.143Z,64.10
2018-12-16T10:40:39.850Z,64.00
2018-12-16T10:43:12.130Z,64.10
2018-12-16T10:45:53.489Z,63.80
2018-12-16T10:48:25.374Z,63.60
2018-12-16T10:51:06.662Z,63.70
2018-12-16T10:53:38.603Z,63.80
2018-12-16T10:56:23.464Z,63.70
2018-12-16T10:58:55.178Z,63.60
2018-12-16T11:01:39.718Z,63.60
2018-12-16T11:04:11.437Z,63.40
2018-12-16T11:06:53.364Z,63.40
2018-12-16T11:09:25.148Z,63.20
2018-12-16T11:12:22.740Z,63.40
2018-12-16T11:14:54.271Z,63.30
2018-12-16T11:17:35.517Z,62.90
2018-12-16T11:20:07.465Z,63.10
2018-12-16T11:22:49.032Z,63.00
2018-12-16T11:25:20.570Z,62.90
2018-12-16T11:28:05.325Z,63.10
2018-12-16T11:30:37.054Z,62.90
2018-12-16T11:33:18.481Z,63.00
2018-12-16T11:35:50.009Z,62.90
2018-12-16T11:38:31.826Z,62.90
2018-12-16T11:41:03.431Z,62.70
2018-12-16T11:43:44.639Z,62.70
2018-12-16T11:46:16.273Z,62.70
2018-12-16T11:48:57.511Z,62.60
2018-12-16T11:51:29.584Z,62.60
2018-12-16T11:54:10.875Z,62.60
2018-12-16T11:56:42.306Z,62.60
2018-12-16T11:59:26.939Z,62.50
2018-12-16T12:01:58.426Z,62.50
2018-12-16T12:04:45.071Z,62.40
2018-12-16T12:07:16.565Z,62.60
2018-12-16T12:10:01.451Z,62.60
2018-12-16T12:12:32.887Z,62.50
2018-12-16T12:15:15.006Z,63.20
2018-12-16T12:17:47.042Z,62.50
2018-12-16T12:20:28.391Z,62.60
2018-12-16T12:23:00.205Z,62.90
2018-12-16T12:25:44.912Z,62.90
2018-12-16T12:28:16.674Z,63.10
2018-12-16T12:30:59.479Z,63.30
2018-12-16T12:33:31.106Z,63.40
2018-12-16T12:36:18.749Z,63.50
2018-12-16T12:38:50.265Z,63.30
2018-12-16T12:41:41.713Z,63.10
2018-12-16T12:44:13.377Z,63.00
2018-12-16T12:46:54.925Z,62.90
2018-12-16T12:49:26.592Z,62.90
2018-12-16T12:52:11.253Z,62.90
2018-12-16T12:54:42.919Z,62.80
2018-12-16T12:57:25.060Z,62.90
2018-12-16T12:59:56.694Z,62.90
2018-12-16T13:02:38.201Z,62.80
2018-12-16T13:05:09.831Z,62.90
2018-12-16T13:07:54.579Z,62.90
2018-12-16T13:10:26.339Z,63.10
2018-12-16T13:13:08.457Z,63.00
2018-12-16T13:15:40.496Z,63.10
2018-12-16T13:18:22.035Z,63.30
2018-12-16T13:20:53.617Z,63.30
2018-12-16T13:23:34.929Z,63.20
2018-12-16T13:26:07.697Z,63.30
2018-12-16T13:28:54.358Z,63.40
2018-12-16T13:31:26.036Z,63.30
2018-12-16T13:34:07.288Z,63.40
2018-12-16T13:36:39.459Z,63.30
2018-12-16T13:39:20.676Z,64.40
2018-12-16T13:41:52.683Z,63.50
2018-12-16T13:44:34.488Z,63.60
2018-12-16T13:47:06.676Z,63.50
2018-12-16T14:16:50.045Z,64.10
2018-12-16T14:19:22.545Z,64.20
2018-12-16T14:22:16.205Z,64.40
2018-12-16T14:24:48.329Z,64.50
2018-12-16T14:27:41.960Z,64.60
2018-12-16T14:30:14.058Z,64.60
2018-12-16T14:46:18.480Z,64.40
2018-12-16T14:48:50.377Z,64.70
2018-12-16T15:04:55.184Z,64.80
2018-12-16T15:07:27.572Z,65.00
2018-12-16T15:23:46.841Z,65.00
2018-12-16T15:26:19.015Z,64.90
2018-12-16T15:29:00.691Z,64.90
2018-12-16T15:31:32.948Z,64.80
2018-12-16T15:34:14.657Z,65.00
2018-12-16T15:36:46.519Z,65.00
2018-12-16T15:39:27.925Z,65.00
2018-12-16T15:41:59.767Z,64.90
2018-12-16T15:44:41.665Z,64.80
2018-12-16T15:47:13.524Z,64.80
2018-12-16T16:16:34.136Z,65.90
2018-12-16T16:19:06.300Z,66.50
2018-12-16T16:35:02.827Z,66.80
2018-12-16T16:37:35.471Z,66.90
2018-12-16T16:40:21.093Z,66.90
2018-12-16T16:42:53.777Z,67.00
2018-12-16T16:45:39.185Z,67.10
2018-12-16T16:48:10.700Z,67.10
2018-12-16T16:50:51.966Z,67.20
2018-12-16T16:53:24.118Z,67.20
2018-12-16T16:56:06.312Z,67.20
2018-12-16T16:58:38.388Z,67.30
2018-12-16T17:01:20.002Z,67.40
2018-12-16T17:03:51.625Z,67.40
2018-12-16T17:06:37.026Z,67.40
2018-12-16T17:09:10.004Z,67.40
2018-12-16T17:11:54.974Z,67.40
2018-12-16T17:14:27.820Z,67.50
2018-12-16T17:30:20.072Z,67.60
2018-12-16T17:32:52.045Z,67.70
2018-12-16T17:35:33.666Z,67.70
2018-12-16T17:38:05.475Z,67.70
2018-12-16T17:40:48.723Z,67.80
2018-12-16T17:43:20.600Z,67.80
2018-12-16T17:46:02.626Z,67.90
2018-12-16T17:48:34.474Z,68.00
2018-12-16T18:04:22.759Z,68.10
2018-12-16T18:06:54.889Z,68.10
2018-12-16T18:09:36.340Z,68.10
2018-12-16T18:12:08.728Z,68.10
2018-12-16T18:14:50.819Z,68.10
2018-12-16T18:17:23.148Z,68.10
2018-12-16T18:20:06.485Z,68.10
2018-12-16T18:22:38.784Z,68.20
2018-12-16T18:25:23.667Z,68.20
2018-12-16T18:27:55.452Z,68.20
2018-12-16T18:30:46.879Z,68.30
2018-12-16T18:33:18.866Z,68.30
2018-12-16T18:36:00.871Z,68.40
2018-12-16T18:38:33.220Z,68.40
2018-12-16T18:41:18.124Z,68.40
2018-12-16T18:43:49.979Z,68.30
2018-12-16T18:46:31.930Z,68.40
2018-12-16T18:49:03.523Z,68.40
2018-12-16T18:51:45.775Z,68.40
2018-12-16T18:54:18.143Z,68.40
2018-12-16T18:57:06.960Z,68.40
2018-12-16T18:59:35.041Z,68.40
2018-12-16T19:02:16.633Z,68.40
2018-12-16T19:04:48.408Z,68.40
2018-12-16T19:07:29.966Z,68.30
2018-12-16T19:10:02.114Z,68.50
2018-12-16T19:12:48.510Z,68.40
2018-12-16T19:15:21.517Z,68.60
2018-12-16T19:18:09.974Z,68.50
2018-12-16T19:20:41.998Z,68.40
2018-12-16T19:23:27.286Z,68.50
2018-12-16T19:26:00.264Z,68.50
2018-12-16T19:28:45.664Z,68.60
2018-12-16T19:31:18.800Z,68.70
2018-12-16T19:34:07.184Z,68.60
2018-12-16T19:36:39.213Z,68.50
2018-12-16T19:39:20.856Z,68.50
2018-12-16T19:41:53.442Z,68.50
2018-12-16T19:44:35.749Z,68.40
2018-12-16T19:47:08.717Z,68.40
2018-12-16T19:49:50.645Z,68.40
2018-12-16T19:52:22.710Z,68.40
2018-12-16T19:55:10.982Z,68.50
2018-12-16T19:57:43.472Z,68.60
2018-12-16T20:00:29.548Z,68.60
2018-12-16T20:03:01.864Z,68.60
2018-12-16T20:05:55.310Z,68.40
2018-12-16T20:08:29.981Z,68.40
2018-12-16T20:11:18.353Z,68.60
2018-12-16T20:13:51.000Z,68.50
2018-12-16T20:29:49.857Z,68.40
2018-12-16T20:32:22.097Z,68.40
2018-12-16T20:35:10.031Z,68.50
2018-12-16T20:37:43.546Z,68.40
2018-12-16T20:40:29.356Z,68.60
2018-12-16T20:43:02.518Z,68.60
2018-12-16T20:45:47.829Z,68.70
2018-12-16T20:48:19.725Z,68.60
2018-12-16T20:51:05.101Z,68.60
2018-12-16T20:53:37.857Z,68.60
2018-12-16T20:56:23.077Z,68.70
2018-12-16T20:58:55.713Z,68.70
2018-12-16T21:01:37.478Z,68.70
2018-12-16T21:04:09.943Z,68.80
2018-12-16T21:06:51.501Z,68.70
2018-12-16T21:09:24.105Z,68.60
2018-12-16T21:12:14.392Z,68.70
2018-12-16T21:14:51.664Z,68.60
2018-12-16T21:17:44.577Z,68.60
2018-12-16T21:20:16.880Z,68.60
2018-12-16T21:23:03.387Z,68.60
2018-12-16T21:25:35.184Z,68.60
2018-12-16T21:28:22.365Z,68.50
2018-12-16T21:30:54.628Z,68.60
2018-12-16T21:33:35.999Z,68.50
2018-12-16T21:36:08.192Z,68.40
2018-12-16T21:38:49.706Z,68.40
2018-12-16T21:41:21.744Z,68.40
2018-12-16T21:44:07.235Z,68.40
2018-12-16T21:46:39.016Z,68.40
2018-12-16T21:49:21.174Z,68.40
2018-12-16T21:51:52.844Z,68.40
2018-12-16T21:54:34.569Z,68.40
2018-12-16T21:57:06.461Z,68.50
2018-12-16T21:59:54.001Z,68.50
2018-12-16T22:02:26.152Z,68.60
2018-12-16T22:05:15.663Z,68.50
2018-12-16T22:07:48.132Z,69.30
2018-12-16T22:10:29.704Z,68.60
2018-12-16T22:13:01.556Z,68.60
2018-12-16T22:15:43.038Z,68.70
2018-12-16T22:18:14.640Z,68.70
2018-12-16T22:20:59.726Z,68.70
2018-12-16T22:23:32.099Z,68.80
2018-12-16T22:26:17.457Z,68.80
2018-12-16T22:28:49.408Z,68.80
2018-12-16T22:31:31.012Z,68.80
2018-12-16T22:34:03.048Z,68.80
2018-12-16T22:36:47.873Z,68.80
2018-12-16T22:39:19.721Z,68.80
2018-12-16T22:42:04.580Z,68.90
2018-12-16T22:44:36.447Z,68.80
2018-12-16T22:47:17.826Z,68.80
2018-12-16T22:49:49.653Z,68.90
2018-12-16T22:52:31.169Z,68.80
2018-12-16T22:55:02.942Z,68.60
2018-12-16T22:57:49.101Z,69.30
2018-12-16T23:00:21.111Z,68.60
2018-12-16T23:03:12.404Z,68.50
2018-12-16T23:05:44.874Z,68.50
2018-12-16T23:08:26.273Z,68.40
2018-12-16T23:10:57.978Z,68.40
2018-12-16T23:13:39.673Z,68.40
2018-12-16T23:16:11.687Z,68.40
2018-12-16T23:18:56.857Z,68.40
2018-12-16T23:21:29.050Z,68.60
2018-12-16T23:24:13.837Z,68.30
2018-12-16T23:26:45.834Z,68.40
2018-12-16T23:29:33.746Z,68.40
2018-12-16T23:32:05.505Z,68.40
2018-12-16T23:34:51.637Z,68.40
2018-12-16T23:37:23.314Z,68.40
2018-12-16T23:40:08.633Z,68.40
2018-12-16T23:42:40.431Z,68.40
2018-12-16T23:45:21.880Z,68.40
2018-12-16T23:47:53.510Z,68.40
2018-12-16T23:50:35.339Z,68.40
2018-12-16T23:53:09.200Z,68.50
2018-12-16T23:55:50.826Z,68.60
2018-12-16T23:58:22.753Z,68.60
